createdAt,value
2023-04-10T00:00:34.874Z,958.32
2023-04-10T00:01:34.883Z,958.31
2023-04-10T00:02:34.920Z,958.33
2023-04-10T00:03:34.913Z,958.31
2023-04-10T00:04:34.963Z,958.33
2023-04-10T00:05:34.789Z,958.33
2023-04-10T00:06:34.783Z,958.36
2023-04-10T00:07:34.796Z,958.32
2023-04-10T00:08:34.772Z,958.33
2023-04-10T00:09:34.745Z,958.33
2023-04-10T00:10:34.736Z,958.28
2023-04-10T00:11:34.728Z,958.28
2023-04-10T00:12:34.713Z,958.30
2023-04-10T00:13:34.759Z,958.22
2023-04-10T00:14:34.691Z,958.20
2023-04-10T00:15:34.679Z,958.20
2023-04-10T00:16:34.726Z,958.19
2023-04-10T00:17:34.689Z,958.19
2023-04-10T00:18:34.670Z,958.17
2023-04-10T00:19:34.649Z,958.19
2023-04-10T00:20:34.621Z,958.18
2023-04-10T00:21:41.777Z,958.18
2023-04-10T00:22:34.603Z,958.23
2023-04-10T00:23:41.786Z,958.18
2023-04-10T00:24:42.659Z,958.14
2023-04-10T00:25:41.701Z,958.20
2023-04-10T00:26:34.583Z,958.19
2023-04-10T00:27:34.545Z,958.24
2023-04-10T00:28:34.553Z,958.20
2023-04-10T00:29:34.519Z,958.19
2023-04-10T00:30:34.555Z,958.20
2023-04-10T00:31:34.545Z,958.18
2023-04-10T00:32:34.505Z,958.17
2023-04-10T00:33:34.500Z,958.19
2023-04-10T00:34:34.464Z,958.18
2023-04-10T00:35:34.472Z,958.15
2023-04-10T00:36:34.462Z,958.10
2023-04-10T00:37:34.443Z,958.13
2023-04-10T00:38:34.438Z,958.11
2023-04-10T00:39:34.432Z,958.10
2023-04-10T00:40:34.400Z,958.05
2023-04-10T00:41:34.411Z,958.08
2023-04-10T00:42:34.374Z,958.02
2023-04-10T00:43:34.380Z,958.03
2023-04-10T00:44:34.358Z,958.00
2023-04-10T00:45:34.442Z,958.07
2023-04-10T00:46:34.354Z,958.05
2023-04-10T00:47:34.393Z,958.04
2023-04-10T00:48:34.306Z,958.06
2023-04-10T00:49:34.303Z,957.99
2023-04-10T00:50:34.288Z,958.00
2023-04-10T00:51:34.298Z,958.03
2023-04-10T00:52:34.263Z,958.03
2023-04-10T00:53:34.278Z,958.09
2023-04-10T00:54:34.238Z,958.04
2023-04-10T00:55:34.245Z,958.02
2023-04-10T00:56:34.254Z,958.04
2023-04-10T00:57:34.201Z,958.06
2023-04-10T00:58:34.199Z,958.07
2023-04-10T00:59:34.239Z,958.12
2023-04-10T01:00:34.173Z,958.13
2023-04-10T01:01:34.272Z,958.08
2023-04-10T01:02:34.267Z,958.08
2023-04-10T01:03:34.221Z,958.04
2023-04-10T01:04:34.313Z,958.08
2023-04-10T01:05:34.146Z,958.10
2023-04-10T01:06:34.100Z,958.03
2023-04-10T01:07:34.085Z,958.06
2023-04-10T01:08:34.074Z,958.03
2023-04-10T01:09:34.073Z,958.02
2023-04-10T01:10:34.088Z,958.04
2023-04-10T01:11:34.067Z,958.06
2023-04-10T01:12:34.041Z,958.05
2023-04-10T01:13:34.019Z,958.05
2023-04-10T01:14:34.051Z,958.06
2023-04-10T01:15:34.019Z,958.05
2023-04-10T01:16:34.006Z,958.07
2023-04-10T01:17:34.012Z,958.09
2023-04-10T01:18:33.998Z,958.06
2023-04-10T01:19:33.965Z,958.04
2023-04-10T01:20:33.960Z,958.08
2023-04-10T01:21:33.930Z,958.08
2023-04-10T01:22:33.924Z,958.07
2023-04-10T01:23:33.914Z,958.08
2023-04-10T01:24:33.895Z,958.08
2023-04-10T01:25:33.905Z,958.02
2023-04-10T01:26:33.873Z,958.02
2023-04-10T01:27:33.883Z,958.00
2023-04-10T01:28:33.862Z,958.02
2023-04-10T01:29:33.848Z,958.01
2023-04-10T01:30:33.931Z,958.05
2023-04-10T01:31:33.831Z,957.99
2023-04-10T01:32:33.864Z,957.99
2023-04-10T01:33:33.817Z,958.03
2023-04-10T01:34:33.800Z,958.01
2023-04-10T01:35:33.791Z,958.05
2023-04-10T01:36:33.759Z,958.01
2023-04-10T01:37:33.745Z,958.02
2023-04-10T01:38:33.739Z,958.02
2023-04-10T01:39:33.745Z,957.98
2023-04-10T01:40:33.717Z,958.02
2023-04-10T01:41:33.709Z,958.00
2023-04-10T01:42:33.702Z,958.02
2023-04-10T01:43:33.706Z,958.00
2023-04-10T01:44:33.702Z,958.02
2023-04-10T01:45:33.698Z,958.02
2023-04-10T01:46:33.675Z,957.99
2023-04-10T01:47:33.683Z,958.05
2023-04-10T01:48:33.627Z,958.00
2023-04-10T01:49:33.634Z,958.01
2023-04-10T01:50:33.620Z,958.03
2023-04-10T01:51:33.593Z,958.05
2023-04-10T01:52:33.606Z,958.05
2023-04-10T01:53:33.574Z,958.05
2023-04-10T01:54:33.576Z,958.08
2023-04-10T01:55:33.552Z,958.06
2023-04-10T01:56:33.534Z,958.03
2023-04-10T01:57:33.549Z,958.04
2023-04-10T01:58:33.513Z,958.01
2023-04-10T01:59:33.525Z,958.01
2023-04-10T02:00:33.496Z,958.03
2023-04-10T02:01:33.643Z,958.02
2023-04-10T02:02:33.735Z,958.03
2023-04-10T02:03:33.575Z,958.00
2023-04-10T02:04:33.591Z,957.95
2023-04-10T02:05:33.529Z,957.93
2023-04-10T02:06:33.448Z,957.95
2023-04-10T02:07:33.414Z,957.95
2023-04-10T02:08:33.408Z,957.94
2023-04-10T02:09:33.390Z,957.91
2023-04-10T02:10:34.343Z,957.91
2023-04-10T02:11:33.400Z,957.95
2023-04-10T02:12:33.355Z,957.90
2023-04-10T02:13:33.348Z,957.90
2023-04-10T02:14:36.377Z,957.91
2023-04-10T02:15:33.381Z,957.90
2023-04-10T02:16:33.393Z,957.87
2023-04-10T02:17:33.312Z,957.90
2023-04-10T02:18:33.324Z,957.95
2023-04-10T02:19:33.278Z,957.95
2023-04-10T02:20:33.288Z,957.94
2023-04-10T02:21:33.260Z,957.92
2023-04-10T02:22:33.244Z,957.89
2023-04-10T02:23:33.230Z,957.90
2023-04-10T02:24:33.241Z,957.92
2023-04-10T02:25:33.219Z,957.95
2023-04-10T02:26:33.195Z,957.88
2023-04-10T02:27:33.199Z,957.95
2023-04-10T02:28:33.179Z,957.91
2023-04-10T02:29:33.194Z,958.00
2023-04-10T02:30:33.149Z,957.93
2023-04-10T02:31:33.196Z,957.96
2023-04-10T02:32:33.213Z,957.94
2023-04-10T02:33:33.118Z,957.96
2023-04-10T02:34:33.105Z,957.99
2023-04-10T02:35:33.149Z,957.93
2023-04-10T02:36:33.099Z,957.92
2023-04-10T02:37:33.085Z,957.90
2023-04-10T02:38:33.067Z,957.93
2023-04-10T02:39:33.057Z,957.91
2023-04-10T02:40:33.036Z,957.84
2023-04-10T02:41:33.049Z,957.90
2023-04-10T02:42:33.017Z,957.86
2023-04-10T02:43:33.001Z,957.85
2023-04-10T02:44:32.992Z,957.92
2023-04-10T02:45:32.990Z,957.80
2023-04-10T02:46:33.039Z,957.86
2023-04-10T02:47:33.027Z,957.86
2023-04-10T02:48:32.944Z,957.84
2023-04-10T02:49:32.937Z,957.84
2023-04-10T02:50:32.923Z,957.85
2023-04-10T02:51:32.920Z,957.85
2023-04-10T02:52:32.921Z,957.84
2023-04-10T02:53:32.885Z,957.88
2023-04-10T02:54:32.877Z,957.88
2023-04-10T02:55:32.872Z,957.94
2023-04-10T02:56:32.875Z,957.89
2023-04-10T02:57:32.865Z,957.90
2023-04-10T02:58:32.832Z,957.91
2023-04-10T02:59:32.841Z,957.89
2023-04-10T03:00:32.830Z,957.92
2023-04-10T03:01:32.848Z,957.96
2023-04-10T03:02:33.010Z,957.93
2023-04-10T03:03:32.941Z,957.91
2023-04-10T03:04:32.792Z,957.93
2023-04-10T03:05:32.777Z,957.91
2023-04-10T03:06:32.758Z,957.89
2023-04-10T03:07:32.736Z,957.92
2023-04-10T03:08:32.725Z,957.85
2023-04-10T03:09:32.721Z,957.88
2023-04-10T03:10:32.749Z,957.86
2023-04-10T03:11:32.689Z,957.85
2023-04-10T03:12:32.680Z,957.84
2023-04-10T03:13:32.668Z,957.84
2023-04-10T03:14:32.654Z,957.83
2023-04-10T03:15:32.683Z,957.82
2023-04-10T03:16:32.726Z,957.83
2023-04-10T03:17:32.676Z,957.82
2023-04-10T03:18:32.632Z,957.82
2023-04-10T03:19:32.614Z,957.80
2023-04-10T03:20:32.583Z,957.82
2023-04-10T03:21:32.622Z,957.78
2023-04-10T03:22:32.566Z,957.81
2023-04-10T03:23:32.553Z,957.79
2023-04-10T03:24:32.540Z,957.80
2023-04-10T03:25:32.536Z,957.80
2023-04-10T03:26:32.545Z,957.79
2023-04-10T03:27:32.520Z,957.78
2023-04-10T03:28:32.497Z,957.76
2023-04-10T03:29:32.510Z,957.79
2023-04-10T03:30:32.498Z,957.79
2023-04-10T03:31:32.530Z,957.76
2023-04-10T03:32:32.473Z,957.75
2023-04-10T03:33:32.481Z,957.77
2023-04-10T03:34:32.426Z,957.75
2023-04-10T03:35:32.483Z,957.78
2023-04-10T03:36:32.405Z,957.79
2023-04-10T03:37:32.413Z,957.80
2023-04-10T03:38:32.383Z,957.73
2023-04-10T03:39:32.382Z,957.79
2023-04-10T03:40:32.360Z,957.77
2023-04-10T03:41:32.383Z,957.76
2023-04-10T03:42:32.347Z,957.76
2023-04-10T03:43:32.378Z,957.81
2023-04-10T03:44:32.345Z,957.83
2023-04-10T03:45:32.322Z,957.83
2023-04-10T03:46:32.328Z,957.83
2023-04-10T03:47:32.370Z,957.86
2023-04-10T03:48:32.299Z,957.81
2023-04-10T03:49:32.263Z,957.79
2023-04-10T03:50:32.248Z,957.84
2023-04-10T03:51:32.302Z,957.76
2023-04-10T03:52:32.229Z,957.74
2023-04-10T03:53:34.042Z,957.73
2023-04-10T03:54:32.197Z,957.73
2023-04-10T03:55:34.723Z,957.74
2023-04-10T03:56:32.180Z,957.81
2023-04-10T03:57:32.187Z,957.80
2023-04-10T03:58:32.174Z,957.84
2023-04-10T03:59:38.706Z,957.84
2023-04-10T04:00:33.137Z,957.89
2023-04-10T04:01:32.123Z,957.93
2023-04-10T04:02:32.232Z,957.94
2023-04-10T04:03:32.243Z,957.99
2023-04-10T04:04:32.213Z,958.02
2023-04-10T04:05:32.077Z,958.02
2023-04-10T04:06:32.091Z,958.02
2023-04-10T04:07:32.072Z,958.00
2023-04-10T04:08:32.065Z,958.04
2023-04-10T04:09:32.065Z,958.07
2023-04-10T04:10:32.018Z,958.09
2023-04-10T04:11:32.011Z,958.11
2023-04-10T04:12:32.000Z,958.04
2023-04-10T04:13:32.013Z,958.07
2023-04-10T04:14:31.975Z,958.09
2023-04-10T04:15:31.979Z,958.09
2023-04-10T04:16:31.970Z,958.12
2023-04-10T04:17:32.035Z,958.09
2023-04-10T04:18:31.935Z,958.10
2023-04-10T04:19:31.917Z,958.13
2023-04-10T04:20:31.907Z,958.12
2023-04-10T04:21:31.932Z,958.10
2023-04-10T04:22:32.008Z,958.12
2023-04-10T04:23:31.890Z,958.10
2023-04-10T04:24:31.864Z,958.11
2023-04-10T04:25:31.856Z,958.10
2023-04-10T04:26:31.855Z,958.12
2023-04-10T04:27:31.843Z,958.10
2023-04-10T04:28:31.824Z,958.11
2023-04-10T04:29:31.804Z,958.14
2023-04-10T04:30:31.804Z,958.09
2023-04-10T04:31:31.850Z,958.16
2023-04-10T04:32:31.802Z,958.18
2023-04-10T04:33:31.773Z,958.21
2023-04-10T04:34:31.763Z,958.23
2023-04-10T04:35:31.752Z,958.22
2023-04-10T04:36:31.735Z,958.21
2023-04-10T04:37:31.739Z,958.24
2023-04-10T04:38:31.715Z,958.20
2023-04-10T04:39:31.711Z,958.23
2023-04-10T04:40:31.695Z,958.23
2023-04-10T04:41:31.686Z,958.22
2023-04-10T04:42:31.687Z,958.25
2023-04-10T04:43:31.674Z,958.30
2023-04-10T04:44:31.660Z,958.30
2023-04-10T04:45:31.652Z,958.27
2023-04-10T04:46:31.666Z,958.29
2023-04-10T04:47:31.634Z,958.30
2023-04-10T04:48:31.594Z,958.34
2023-04-10T04:49:31.608Z,958.33
2023-04-10T04:50:31.570Z,958.34
2023-04-10T04:51:31.608Z,958.32
2023-04-10T04:52:31.576Z,958.40
2023-04-10T04:53:31.569Z,958.36
2023-04-10T04:54:31.524Z,958.37
2023-04-10T04:55:31.534Z,958.36
2023-04-10T04:56:31.577Z,958.35
2023-04-10T04:57:31.504Z,958.32
2023-04-10T04:58:31.500Z,958.32
2023-04-10T04:59:31.472Z,958.34
2023-04-10T05:00:31.460Z,958.29
2023-04-10T05:01:31.465Z,958.29
2023-04-10T05:02:31.542Z,958.29
2023-04-10T05:03:31.635Z,958.29
2023-04-10T05:04:31.433Z,958.27
2023-04-10T05:05:31.402Z,958.27
2023-04-10T05:06:31.407Z,958.32
2023-04-10T05:07:31.410Z,958.29
2023-04-10T05:08:31.370Z,958.26
2023-04-10T05:09:31.370Z,958.29
2023-04-10T05:10:31.341Z,958.27
2023-04-10T05:11:31.395Z,958.29
2023-04-10T05:12:31.324Z,958.26
2023-04-10T05:13:31.384Z,958.28
2023-04-10T05:14:31.295Z,958.31
2023-04-10T05:15:31.343Z,958.30
2023-04-10T05:16:31.274Z,958.34
2023-04-10T05:17:31.305Z,958.37
2023-04-10T05:18:31.327Z,958.34
2023-04-10T05:19:31.242Z,958.38
2023-04-10T05:20:31.241Z,958.36
2023-04-10T05:21:31.247Z,958.30
2023-04-10T05:22:31.208Z,958.30
2023-04-10T05:23:31.213Z,958.31
2023-04-10T05:24:31.180Z,958.36
2023-04-10T05:25:31.192Z,958.32
2023-04-10T05:26:31.159Z,958.34
2023-04-10T05:27:31.187Z,958.33
2023-04-10T05:28:31.179Z,958.34
2023-04-10T05:29:31.131Z,958.33
2023-04-10T05:30:31.117Z,958.31
2023-04-10T05:31:31.215Z,958.30
2023-04-10T05:32:31.173Z,958.32
2023-04-10T05:33:31.090Z,958.34
2023-04-10T05:34:31.094Z,958.31
2023-04-10T05:35:31.089Z,958.34
2023-04-10T05:36:31.667Z,958.33
2023-04-10T05:37:31.060Z,958.37
2023-04-10T05:38:31.026Z,958.34
2023-04-10T05:39:31.025Z,958.34
2023-04-10T05:40:31.040Z,958.31
2023-04-10T05:41:30.992Z,958.30
2023-04-10T05:42:31.009Z,958.28
2023-04-10T05:43:30.996Z,958.31
2023-04-10T05:44:30.964Z,958.32
2023-04-10T05:45:30.977Z,958.29
2023-04-10T05:46:31.011Z,958.33
2023-04-10T05:47:31.029Z,958.32
2023-04-10T05:48:30.923Z,958.35
2023-04-10T05:49:30.927Z,958.33
2023-04-10T05:50:30.894Z,958.31
2023-04-10T05:51:30.912Z,958.35
2023-04-10T05:52:30.889Z,958.38
2023-04-10T05:53:30.859Z,958.39
2023-04-10T05:54:30.862Z,958.41
2023-04-10T05:55:30.840Z,958.38
2023-04-10T05:56:30.823Z,958.35
2023-04-10T05:57:30.836Z,958.35
2023-04-10T05:58:30.859Z,958.29
2023-04-10T05:59:30.814Z,958.28
2023-04-10T06:00:30.816Z,958.29
2023-04-10T06:01:30.769Z,958.26
2023-04-10T06:02:31.185Z,958.31
2023-04-10T06:03:31.008Z,958.29
2023-04-10T06:04:30.923Z,958.33
2023-04-10T06:05:30.724Z,958.32
2023-04-10T06:06:30.707Z,958.38
2023-04-10T06:07:30.770Z,958.57
2023-04-10T06:08:30.722Z,958.60
2023-04-10T06:09:30.713Z,958.58
2023-04-10T06:10:30.665Z,958.62
2023-04-10T06:11:30.655Z,958.58
2023-04-10T06:12:30.659Z,958.59
2023-04-10T06:13:30.629Z,958.59
2023-04-10T06:14:30.636Z,958.57
2023-04-10T06:15:30.646Z,958.56
2023-04-10T06:16:30.676Z,958.51
2023-04-10T06:17:37.864Z,958.50
2023-04-10T06:18:38.257Z,958.50
2023-04-10T06:19:30.566Z,958.49
2023-04-10T06:20:39.431Z,958.45
2023-04-10T06:21:38.190Z,958.49
2023-04-10T06:23:46.734Z,958.46
2023-04-10T06:24:46.940Z,958.39
2023-04-10T06:25:46.964Z,958.33
2023-04-10T06:26:46.666Z,958.40
2023-04-10T06:27:46.659Z,958.44
2023-04-10T06:28:46.678Z,958.47
2023-04-10T06:29:46.636Z,958.44
2023-04-10T06:30:46.665Z,958.40
2023-04-10T06:31:46.844Z,958.45
2023-04-10T06:32:46.641Z,958.37
2023-04-10T06:33:46.618Z,958.37
2023-04-10T06:34:46.578Z,958.40
2023-04-10T06:35:46.616Z,958.39
2023-04-10T06:36:46.572Z,958.39
2023-04-10T06:37:46.566Z,958.32
2023-04-10T06:38:46.533Z,958.37
2023-04-10T06:39:46.561Z,958.39
2023-04-10T06:40:46.511Z,958.36
2023-04-10T06:41:46.502Z,958.35
2023-04-10T06:42:46.507Z,958.38
2023-04-10T06:43:46.512Z,958.27
2023-04-10T06:44:46.470Z,958.33
2023-04-10T06:45:46.514Z,958.29
2023-04-10T06:46:46.462Z,958.30
2023-04-10T06:47:46.461Z,958.24
2023-04-10T06:48:46.451Z,958.29
2023-04-10T06:49:46.424Z,958.24
2023-04-10T06:50:46.587Z,958.21
2023-04-10T06:51:46.409Z,958.19
2023-04-10T06:52:46.440Z,958.24
2023-04-10T06:53:46.516Z,958.23
2023-04-10T06:54:46.366Z,958.21
2023-04-10T06:55:46.347Z,958.16
2023-04-10T06:56:46.352Z,958.22
2023-04-10T06:57:46.338Z,958.19
2023-04-10T06:58:46.311Z,958.19
2023-04-10T06:59:46.315Z,958.16
2023-04-10T07:00:46.338Z,958.19
2023-04-10T07:01:46.328Z,958.19
2023-04-10T07:02:46.436Z,958.20
2023-04-10T07:03:46.269Z,958.22
2023-04-10T07:04:46.269Z,958.22
2023-04-10T07:05:46.251Z,958.15
2023-04-10T07:06:46.241Z,958.12
2023-04-10T07:07:46.212Z,958.09
2023-04-10T07:08:46.195Z,958.07
2023-04-10T07:09:46.253Z,958.03
2023-04-10T07:10:46.263Z,957.95
2023-04-10T07:11:46.169Z,957.95
2023-04-10T07:12:46.157Z,957.97
2023-04-10T07:13:46.148Z,957.96
2023-04-10T07:14:46.128Z,957.91
2023-04-10T07:15:46.136Z,957.94
2023-04-10T07:16:46.364Z,957.97
2023-04-10T07:17:46.129Z,957.92
2023-04-10T07:18:47.398Z,957.93
2023-04-10T07:19:46.114Z,957.91
2023-04-10T07:20:46.086Z,957.89
2023-04-10T07:21:46.053Z,957.86
2023-04-10T07:22:46.046Z,957.89
2023-04-10T07:23:46.031Z,957.88
2023-04-10T07:24:46.020Z,957.93
2023-04-10T07:25:46.019Z,957.86
2023-04-10T07:26:46.017Z,957.90
2023-04-10T07:27:45.994Z,957.90
2023-04-10T07:28:45.985Z,957.92
2023-04-10T07:29:45.963Z,957.90
2023-04-10T07:30:45.954Z,957.87
2023-04-10T07:31:46.020Z,957.90
2023-04-10T07:32:46.053Z,957.90
2023-04-10T07:33:45.980Z,957.92
2023-04-10T07:34:45.928Z,957.89
2023-04-10T07:35:45.955Z,957.89
2023-04-10T07:36:46.183Z,957.88
2023-04-10T07:37:45.957Z,957.92
2023-04-10T07:38:45.862Z,957.93
2023-04-10T07:39:45.848Z,957.84
2023-04-10T07:40:45.850Z,957.84
2023-04-10T07:41:47.912Z,957.86
2023-04-10T07:42:45.823Z,957.89
2023-04-10T07:43:45.821Z,957.87
2023-04-10T07:44:45.794Z,957.84
2023-04-10T07:45:45.799Z,957.85
2023-04-10T07:46:45.813Z,957.84
2023-04-10T07:47:45.795Z,957.88
2023-04-10T07:48:45.771Z,957.88
2023-04-10T07:49:45.742Z,957.84
2023-04-10T07:50:45.761Z,957.81
2023-04-10T07:51:45.738Z,957.83
2023-04-10T07:52:45.788Z,957.84
2023-04-10T07:53:45.692Z,957.78
2023-04-10T07:54:45.706Z,957.73
2023-04-10T07:55:45.666Z,957.72
2023-04-10T07:56:45.726Z,957.68
2023-04-10T07:57:45.647Z,957.75
2023-04-10T07:58:45.654Z,957.69
2023-04-10T07:59:45.654Z,957.71
2023-04-10T08:00:45.609Z,957.76
2023-04-10T08:01:45.646Z,957.73
2023-04-10T08:02:45.686Z,957.71
2023-04-10T08:03:45.720Z,957.76
2023-04-10T08:04:45.643Z,957.71
2023-04-10T08:05:45.552Z,957.65
2023-04-10T08:06:45.593Z,957.66
2023-04-10T08:07:45.524Z,957.65
2023-04-10T08:08:45.526Z,957.63
2023-04-10T08:09:45.525Z,957.65
2023-04-10T08:10:45.516Z,957.62
2023-04-10T08:11:45.543Z,957.67
2023-04-10T08:12:45.489Z,957.63
2023-04-10T08:13:45.458Z,957.67
2023-04-10T08:14:45.451Z,957.65
2023-04-10T08:15:45.456Z,957.64
2023-04-10T08:16:45.480Z,957.61
2023-04-10T08:17:45.507Z,957.66
2023-04-10T08:18:45.406Z,957.62
2023-04-10T08:19:45.419Z,957.68
2023-04-10T08:20:45.383Z,957.69
2023-04-10T08:21:45.381Z,957.63
2023-04-10T08:22:45.405Z,957.64
2023-04-10T08:23:45.346Z,957.68
2023-04-10T08:24:45.338Z,957.68
2023-04-10T08:25:45.338Z,957.69
2023-04-10T08:26:45.352Z,957.60
2023-04-10T08:27:45.317Z,957.66
2023-04-10T08:28:45.306Z,957.64
2023-04-10T08:29:45.285Z,957.69
2023-04-10T08:30:45.336Z,957.66
2023-04-10T08:31:45.293Z,957.65
2023-04-10T08:32:45.291Z,957.68
2023-04-10T08:33:45.262Z,957.65
2023-04-10T08:34:45.281Z,957.74
2023-04-10T08:35:45.227Z,957.67
2023-04-10T08:36:45.228Z,957.69
2023-04-10T08:37:49.683Z,957.74
2023-04-10T08:38:46.203Z,957.70
2023-04-10T08:39:45.170Z,957.68
2023-04-10T08:40:45.205Z,957.69
2023-04-10T08:41:45.143Z,957.65
2023-04-10T08:42:45.154Z,957.61
2023-04-10T08:43:45.129Z,957.61
2023-04-10T08:44:45.112Z,957.63
2023-04-10T08:45:45.164Z,957.63
2023-04-10T08:46:45.112Z,957.61
2023-04-10T08:47:45.113Z,957.57
2023-04-10T08:48:45.069Z,957.59
2023-04-10T08:49:45.055Z,957.54
2023-04-10T08:50:45.047Z,957.58
2023-04-10T08:51:46.263Z,957.60
2023-04-10T08:52:45.056Z,957.64
2023-04-10T08:53:45.017Z,957.60
2023-04-10T08:54:45.043Z,957.61
2023-04-10T08:55:45.002Z,957.70
2023-04-10T08:56:44.994Z,957.57
2023-04-10T08:57:50.946Z,957.61
2023-04-10T08:58:46.024Z,957.63
2023-04-10T08:59:44.957Z,957.57
2023-04-10T09:00:44.935Z,957.65
2023-04-10T09:01:44.983Z,957.62
2023-04-10T09:02:45.144Z,957.61
2023-04-10T09:03:44.962Z,957.59
2023-04-10T09:04:45.000Z,957.59
2023-04-10T09:05:44.876Z,957.60
2023-04-10T09:06:44.871Z,957.67
2023-04-10T09:07:44.903Z,957.66
2023-04-10T09:08:44.855Z,957.57
2023-04-10T09:09:44.842Z,957.61
2023-04-10T09:10:44.857Z,957.56
2023-04-10T09:11:44.817Z,957.58
2023-04-10T09:12:44.831Z,957.60
2023-04-10T09:13:44.794Z,957.64
2023-04-10T09:14:45.311Z,957.61
2023-04-10T09:15:44.806Z,957.59
2023-04-10T09:16:44.792Z,957.55
2023-04-10T09:17:44.774Z,957.51
2023-04-10T09:18:44.738Z,957.48
2023-04-10T09:19:44.734Z,957.49
2023-04-10T09:20:44.711Z,957.49
2023-04-10T09:21:44.701Z,957.53
2023-04-10T09:22:44.730Z,957.49
2023-04-10T09:23:44.733Z,957.42
2023-04-10T09:24:44.696Z,957.54
2023-04-10T09:25:44.656Z,957.50
2023-04-10T09:26:44.674Z,957.49
2023-04-10T09:27:44.640Z,957.48
2023-04-10T09:28:44.651Z,957.46
2023-04-10T09:29:44.629Z,957.47
2023-04-10T09:30:44.603Z,957.46
2023-04-10T09:31:44.681Z,957.48
2023-04-10T09:32:44.608Z,957.40
2023-04-10T09:33:44.577Z,957.39
2023-04-10T09:34:44.592Z,957.38
2023-04-10T09:35:44.562Z,957.40
2023-04-10T09:36:44.574Z,957.36
2023-04-10T09:37:44.538Z,957.37
2023-04-10T09:38:44.513Z,957.32
2023-04-10T09:39:44.517Z,957.29
2023-04-10T09:40:44.526Z,957.34
2023-04-10T09:41:44.477Z,957.27
2023-04-10T09:42:44.514Z,957.27
2023-04-10T09:43:44.452Z,957.23
2023-04-10T09:44:44.453Z,957.35
2023-04-10T09:45:44.432Z,957.25
2023-04-10T09:46:44.488Z,957.23
2023-04-10T09:47:44.478Z,957.19
2023-04-10T09:48:44.398Z,957.24
2023-04-10T09:49:44.389Z,957.21
2023-04-10T09:50:44.386Z,957.21
2023-04-10T09:51:44.366Z,957.16
2023-04-10T09:52:44.369Z,957.14
2023-04-10T09:53:44.371Z,957.14
2023-04-10T09:54:44.344Z,957.14
2023-04-10T09:55:44.322Z,957.13
2023-04-10T09:56:44.311Z,957.12
2023-04-10T09:57:44.319Z,957.09
2023-04-10T09:58:44.307Z,957.05
2023-04-10T09:59:44.281Z,957.08
2023-04-10T10:00:44.272Z,957.06
2023-04-10T10:01:44.439Z,957.05
2023-04-10T10:02:44.363Z,957.05
2023-04-10T10:03:44.291Z,956.99
2023-04-10T10:04:44.310Z,957.04
2023-04-10T10:05:44.214Z,957.04
2023-04-10T10:06:44.205Z,956.99
2023-04-10T10:07:44.208Z,956.95
2023-04-10T10:08:44.177Z,957.00
2023-04-10T10:09:44.176Z,956.99
2023-04-10T10:10:44.192Z,957.00
2023-04-10T10:11:44.180Z,956.95
2023-04-10T10:12:44.136Z,956.95
2023-04-10T10:13:44.127Z,956.93
2023-04-10T10:14:44.184Z,956.91
2023-04-10T10:15:44.115Z,956.88
2023-04-10T10:16:44.258Z,956.82
2023-04-10T10:17:44.124Z,956.80
2023-04-10T10:18:44.066Z,956.81
2023-04-10T10:19:44.053Z,956.82
2023-04-10T10:20:44.047Z,956.80
2023-04-10T10:21:44.062Z,956.84
2023-04-10T10:22:44.041Z,956.77
2023-04-10T10:23:44.029Z,956.77
2023-04-10T10:24:44.006Z,956.78
2023-04-10T10:25:44.027Z,956.74
2023-04-10T10:26:43.989Z,956.77
2023-04-10T10:27:43.976Z,956.73
2023-04-10T10:28:43.993Z,956.72
2023-04-10T10:29:43.943Z,956.72
2023-04-10T10:30:43.970Z,956.76
2023-04-10T10:31:43.946Z,956.69
2023-04-10T10:32:43.941Z,956.64
2023-04-10T10:33:43.907Z,956.70
2023-04-10T10:34:43.933Z,956.71
2023-04-10T10:35:43.882Z,956.70
2023-04-10T10:36:43.934Z,956.71
2023-04-10T10:37:43.855Z,956.72
2023-04-10T10:38:43.865Z,956.72
2023-04-10T10:39:43.850Z,956.75
2023-04-10T10:40:43.848Z,956.75
2023-04-10T10:41:43.807Z,956.70
2023-04-10T10:42:43.805Z,956.66
2023-04-10T10:43:43.817Z,956.69
2023-04-10T10:44:43.778Z,956.66
2023-04-10T10:45:43.838Z,956.62
2023-04-10T10:46:43.814Z,956.57
2023-04-10T10:47:44.606Z,956.58
2023-04-10T10:48:43.735Z,956.60
2023-04-10T10:49:43.739Z,956.53
2023-04-10T10:50:43.719Z,956.55
2023-04-10T10:51:43.744Z,956.44
2023-04-10T10:52:43.794Z,956.40
2023-04-10T10:53:43.715Z,956.42
2023-04-10T10:54:57.053Z,956.40
2023-04-10T10:55:44.652Z,956.38
2023-04-10T10:56:43.648Z,956.41
2023-04-10T10:57:43.653Z,956.39
2023-04-10T10:58:43.661Z,956.37
2023-04-10T10:59:43.618Z,956.35
2023-04-10T11:00:43.637Z,956.35
2023-04-10T11:01:43.700Z,956.36
2023-04-10T11:02:43.767Z,956.35
2023-04-10T11:03:43.677Z,956.34
2023-04-10T11:04:43.589Z,956.47
2023-04-10T11:05:43.538Z,956.34
2023-04-10T11:06:44.697Z,956.32
2023-04-10T11:07:43.517Z,956.24
2023-04-10T11:08:43.536Z,956.24
2023-04-10T11:09:43.492Z,956.28
2023-04-10T11:10:43.498Z,956.27
2023-04-10T11:11:43.473Z,956.20
2023-04-10T11:12:43.475Z,956.31
2023-04-10T11:13:43.447Z,956.26
2023-04-10T11:14:43.438Z,956.24
2023-04-10T11:15:43.423Z,956.20
2023-04-10T11:16:43.489Z,956.23
2023-04-10T11:17:43.446Z,956.17
2023-04-10T11:18:43.406Z,956.15
2023-04-10T11:19:43.374Z,956.10
2023-04-10T11:20:43.388Z,956.08
2023-04-10T11:21:43.353Z,956.09
2023-04-10T11:22:43.361Z,956.10
2023-04-10T11:23:43.331Z,956.10
2023-04-10T11:24:43.320Z,956.09
2023-04-10T11:25:43.324Z,956.08
2023-04-10T11:26:43.312Z,956.02
2023-04-10T11:27:43.283Z,956.06
2023-04-10T11:28:43.286Z,955.97
2023-04-10T11:29:43.262Z,955.99
2023-04-10T11:30:43.267Z,956.02
2023-04-10T11:31:43.248Z,955.98
2023-04-10T11:32:43.248Z,955.97
2023-04-10T11:33:43.237Z,955.96
2023-04-10T11:34:43.226Z,956.05
2023-04-10T11:35:43.203Z,955.94
2023-04-10T11:36:43.188Z,955.86
2023-04-10T11:37:43.163Z,956.02
2023-04-10T11:38:43.175Z,956.05
2023-04-10T11:39:43.144Z,955.95
2023-04-10T11:40:43.153Z,955.95
2023-04-10T11:41:43.119Z,955.91
2023-04-10T11:42:43.107Z,955.91
2023-04-10T11:43:43.115Z,955.95
2023-04-10T11:44:43.107Z,955.96
2023-04-10T11:45:43.089Z,955.91
2023-04-10T11:46:43.096Z,955.91
2023-04-10T11:47:43.134Z,955.82
2023-04-10T11:48:43.039Z,955.87
2023-04-10T11:49:43.040Z,955.90
2023-04-10T11:50:43.029Z,955.89
2023-04-10T11:51:43.001Z,955.86
2023-04-10T11:52:43.003Z,955.92
2023-04-10T11:53:43.037Z,955.87
2023-04-10T11:54:42.987Z,955.85
2023-04-10T11:55:42.954Z,955.85
2023-04-10T11:56:42.945Z,955.76
2023-04-10T11:57:42.929Z,955.82
2023-04-10T11:58:42.942Z,955.82
2023-04-10T11:59:42.908Z,955.77
2023-04-10T12:00:42.915Z,955.80
2023-04-10T12:01:43.476Z,955.77
2023-04-10T12:02:42.973Z,955.79
2023-04-10T12:03:43.007Z,955.76
2023-04-10T12:04:43.176Z,955.77
2023-04-10T12:05:42.835Z,955.68
2023-04-10T12:06:42.867Z,955.71
2023-04-10T12:07:42.810Z,955.64
2023-04-10T12:08:42.805Z,955.76
2023-04-10T12:09:42.816Z,955.78
2023-04-10T12:10:42.791Z,955.77
2023-04-10T12:11:42.771Z,955.76
2023-04-10T12:12:42.761Z,955.74
2023-04-10T12:13:42.744Z,955.69
2023-04-10T12:14:42.761Z,955.62
2023-04-10T12:15:42.772Z,955.69
2023-04-10T12:16:42.730Z,955.71
2023-04-10T12:17:42.733Z,955.66
2023-04-10T12:18:42.708Z,955.62
2023-04-10T12:19:42.683Z,955.62
2023-04-10T12:20:42.670Z,955.66
2023-04-10T12:21:42.670Z,955.63
2023-04-10T12:22:42.675Z,955.64
2023-04-10T12:23:42.637Z,955.57
2023-04-10T12:24:45.548Z,955.61
2023-04-10T12:25:42.626Z,955.67
2023-04-10T12:26:42.594Z,955.55
2023-04-10T12:27:42.594Z,955.58
2023-04-10T12:28:42.606Z,955.57
2023-04-10T12:29:42.563Z,955.55